< < Back
Terminal Aerodrome Forecast


Current Version              Previous Versions:   1  2  3  4  5  6  7  8  9  

Terminal Aerodrome Forecast

950
FTUS42 KMLB 032329
TAFDAB
TAF
KDAB 032329Z 0400/0424 14005KT P6SM FEW030 BKN250
     FM040400 18003KT P6SM SCT250
     FM041400 21006KT P6SM SCT025
     FM041800 09008KT P6SM VCTS SCT040CB SCT100 BKN150=

Latest METAR

443
SAUS80 KWBC 042200 RRA
MTRDAB
METAR KDAB 042153Z 19005KT 10SM TS SCT027CB SCT040 SCT100 BKN250 26/21
A3011 RMK AO2 RAB22E39 SLP196 OCNL LTGICCG W TS W MOV NE
P0000 T02610211


USA.gov is the U.S. government's official web portal to all federal, state and local government web resources and services.